Bachir Chihani — 7TJA — position and weather

sailwx.info

Track history (hours):
 
Tides and Currents Weather Stations Pressure Air Temp Water Temp Dewpoint Dewpoint Depression Visibility Wind Speed Wind Dir Waves Ship Positions

Bachir Chihani

Last reported at 2015-Jan-30 09:07 UTC. Time now 2015-Jan-31 00:53 UTC.
Position N 40°29' E 026°55'.

Length 280 m; draft 11.5 m.

Type: Ship (hazmat cat C). MMSI: 605106010.

Date/timePositionNaut miles runAvg speedWind from/ knotsBaromVisibWave heightAir tempDewpointWater temp
2015-Jan-30 09:07N 40°29' E 026°55'911.9
2015-Jan-30 08:21N 40°25' E 026°44'2210.4
2015-Jan-30 06:13N 40°09' E 026°23'24 7.9
2015-Jan-30 03:12N 39°56' E 025°57'15 7.6
2015-Jan-30 01:11N 39°44' E 025°46'7 9.6
2015-Jan-30 00:26N 39°37' E 025°42'11910.7
2015-Jan-29 13:15N 37°50' E 024°34'1010.3
2015-Jan-29 12:16N 37°40' E 024°30'3110.5
2015-Jan-29 09:19N 37°13' E 024°11'143 4.1
2015-Jan-27 22:15N 36°05' E 021°35'9 0.3
2015-Jan-26 19:15N 36°04' E 021°46'347 6.7
2015-Jan-24 15:22N 36°26' E 014°37'810.4
2015-Jan-24 14:34N 36°28' E 014°26'1310.3
2015-Jan-24 13:20N 36°30' E 014°11'810.3
2015-Jan-24 12:31N 36°32' E 014°01'1010.0
2015-Jan-24 11:33N 36°33' E 013°49'  
Track history (hours):
 
Tides and Currents Weather Stations Pressure Air Temp Water Temp Dewpoint Dewpoint Depression Visibility Wind Speed Wind Dir Waves Ship Positions

Bachir Chihani

Last reported at 2015-Jan-30 09:07 UTC. Time now 2015-Jan-31 00:53 UTC.
Position N 40°29' E 026°55'.

Length 280 m; draft 11.5 m.

Type: Ship (hazmat cat C). MMSI: 605106010.

Date/timePositionNaut miles runAvg speedWind from/ knotsBaromVisibWave heightAir tempDewpointWater temp
2015-Jan-30 09:07N 40°29' E 026°55'911.9
2015-Jan-30 08:21N 40°25' E 026°44'2210.4
2015-Jan-30 06:13N 40°09' E 026°23'24 7.9
2015-Jan-30 03:12N 39°56' E 025°57'15 7.6
2015-Jan-30 01:11N 39°44' E 025°46'7 9.6
2015-Jan-30 00:26N 39°37' E 025°42'11910.7
2015-Jan-29 13:15N 37°50' E 024°34'1010.3
2015-Jan-29 12:16N 37°40' E 024°30'3110.5
2015-Jan-29 09:19N 37°13' E 024°11'143 4.1
2015-Jan-27 22:15N 36°05' E 021°35'9 0.3
2015-Jan-26 19:15N 36°04' E 021°46'347 6.7
2015-Jan-24 15:22N 36°26' E 014°37'810.4
2015-Jan-24 14:34N 36°28' E 014°26'1310.3
2015-Jan-24 13:20N 36°30' E 014°11'810.3
2015-Jan-24 12:31N 36°32' E 014°01'1010.0
2015-Jan-24 11:33N 36°33' E 013°49'  

Dump ship's entire track history